Time;durP1;ratioP1;P1;durP2;ratioP2;P2;SDS_P1;SDS_P2;PMS_P1;PMS_P2;Temp;Humidity;BMP_temperature;BMP_pressure;BME280_temperature;BME280_humidity;BME280_pressure;Samples;Min_cycle;Max_cycle;Signal;HPM_P1;HPM_P2
2024/03/12 00:03:27;;;;;;;6.63;3.95;;;;;;;16.00;100.00;101328.09;10480954;28;20043;-79
2024/03/12 00:08:50;;;;;;;6.50;4.35;;;;;;;16.04;100.00;101343.16;10480637;28;20396;-78
2024/03/12 00:14:14;;;;;;;10.10;4.10;;;;;;;15.92;100.00;101320.06;10504405;27;20049;-79
2024/03/12 00:19:36;;;;;;;7.70;4.25;;;;;;;15.93;100.00;101312.09;10500842;28;20045;-78
2024/03/12 00:24:59;;;;;;;8.43;4.28;;;;;;;15.89;100.00;101304.97;10494875;28;20531;-78
2024/03/12 00:30:25;;;;;;;10.18;4.50;;;;;;;16.01;100.00;101317.44;10479312;28;20739;-78
2024/03/12 00:35:47;;;;;;;8.50;4.32;;;;;;;16.00;100.00;101298.78;10497978;28;20052;-79
2024/03/12 00:41:10;;;;;;;7.30;4.03;;;;;;;15.95;100.00;101304.06;10493306;28;20060;-79
2024/03/12 00:46:35;;;;;;;10.13;4.57;;;;;;;15.95;100.00;101289.00;10506220;28;20087;-79
2024/03/12 00:51:58;;;;;;;8.27;4.85;;;;;;;15.99;100.00;101316.53;10456942;28;20041;-78
2024/03/12 00:57:22;;;;;;;9.88;4.75;;;;;;;16.06;100.00;101277.50;10472268;28;20446;-78
2024/03/12 01:02:49;;;;;;;8.30;5.22;;;;;;;16.06;100.00;101267.72;10493598;28;20048;-78
2024/03/12 01:08:12;;;;;;;8.23;5.20;;;;;;;16.08;100.00;101275.72;10492163;28;20497;-79
2024/03/12 01:13:35;;;;;;;7.63;5.15;;;;;;;16.15;100.00;101254.41;10498008;28;20135;-79
2024/03/12 01:18:59;;;;;;;12.68;5.10;;;;;;;16.15;100.00;101261.50;10501113;28;20110;-79
2024/03/12 01:24:21;;;;;;;11.15;5.80;;;;;;;16.11;100.00;101262.38;10478392;28;20052;-79
2024/03/12 01:29:46;;;;;;;8.02;6.03;;;;;;;16.15;100.00;101264.16;10492196;28;20051;-79
2024/03/12 01:35:12;;;;;;;8.93;5.40;;;;;;;16.20;100.00;101262.41;10474519;28;20090;-79
2024/03/12 01:40:35;;;;;;;10.55;5.95;;;;;;;16.17;100.00;101227.75;10479203;28;20059;-79
2024/03/12 01:45:59;;;;;;;8.88;6.10;;;;;;;16.22;100.00;101252.63;10504766;28;20381;-79
2024/03/12 01:51:24;;;;;;;11.98;5.68;;;;;;;16.20;100.00;101244.66;10499953;28;20044;-78
2024/03/12 01:56:48;;;;;;;10.82;5.88;;;;;;;16.13;100.00;101252.63;10474603;28;20667;-79
2024/03/12 02:02:17;;;;;;;9.43;5.53;;;;;;;16.18;100.00;101256.19;10506137;28;20053;-80
2024/03/12 02:07:45;;;;;;;7.07;4.38;;;;;;;16.17;100.00;101249.06;10472229;28;20044;-79
2024/03/12 02:13:08;;;;;;;9.50;5.60;;;;;;;16.26;100.00;101234.00;10477571;28;20041;-79
2024/03/12 02:18:32;;;;;;;8.57;5.43;;;;;;;16.29;100.00;101275.72;10476221;28;20044;-78
2024/03/12 02:23:56;;;;;;;12.18;5.90;;;;;;;16.21;100.00;101259.72;10489439;28;20053;-79
2024/03/12 02:29:19;;;;;;;11.85;6.07;;;;;;;16.27;100.00;101256.19;10499444;28;20049;-79
2024/03/12 02:34:42;;;;;;;9.57;6.05;;;;;;;16.26;100.00;101241.09;10461689;28;20044;-78
2024/03/12 02:40:09;;;;;;;10.32;5.82;;;;;;;16.33;100.00;101250.88;10476973;28;20064;-78
2024/03/12 02:45:31;;;;;;;12.32;5.60;;;;;;;16.26;100.00;101239.31;10476674;28;20098;-79
2024/03/12 02:50:54;;;;;;;9.45;5.35;;;;;;;16.26;100.00;101259.75;10517728;28;20051;-79
2024/03/12 02:56:18;;;;;;;10.27;4.93;;;;;;;16.25;100.00;101263.28;10455339;28;20049;-78
2024/03/12 03:01:40;;;;;;;8.10;3.95;;;;;;;16.42;100.00;101271.28;10452024;28;20053;-79
2024/03/12 03:07:04;;;;;;;12.85;4.93;;;;;;;16.56;100.00;101238.41;10489808;28;20047;-80
2024/03/12 03:12:28;;;;;;;8.20;5.65;;;;;;;16.53;100.00;101237.53;10490004;28;20496;-79
2024/03/12 03:17:50;;;;;;;9.63;5.00;;;;;;;16.60;100.00;101247.34;10489427;28;20094;-79
2024/03/12 03:23:13;;;;;;;9.65;4.68;;;;;;;16.59;100.00;101259.75;10487907;28;20040;-78
2024/03/12 03:28:37;;;;;;;10.75;4.18;;;;;;;16.57;100.00;101256.19;10497851;28;20063;-79
2024/03/12 03:34:04;;;;;;;10.07;4.55;;;;;;;16.62;100.00;101248.19;10490239;28;20381;-79
2024/03/12 03:39:28;;;;;;;8.13;4.63;;;;;;;16.64;100.00;101247.31;10476942;28;20515;-78
2024/03/12 03:44:52;;;;;;;11.00;5.30;;;;;;;16.65;100.00;101274.88;10506962;28;20040;-78
2024/03/12 03:50:14;;;;;;;8.18;4.40;;;;;;;16.68;100.00;101298.84;10482449;28;20113;-79
2024/03/12 03:55:38;;;;;;;7.75;4.55;;;;;;;16.71;100.00;101305.06;10490904;28;20050;-79
2024/03/12 04:01:02;;;;;;;13.00;5.15;;;;;;;16.79;100.00;101322.84;10478607;28;20106;-78
2024/03/12 04:06:25;;;;;;;8.38;4.38;;;;;;;16.77;100.00;101346.84;10482409;28;20072;-79
2024/03/12 04:11:48;;;;;;;8.48;4.20;;;;;;;16.76;100.00;101347.72;10474792;28;20079;-79
2024/03/12 04:17:12;;;;;;;10.40;4.10;;;;;;;16.82;100.00;101360.16;10510701;28;20049;-79
2024/03/12 04:22:35;;;;;;;9.63;4.13;;;;;;;16.79;100.00;101381.53;10509353;28;20075;-79
2024/03/12 04:27:57;;;;;;;11.20;4.50;;;;;;;16.90;100.00;101383.28;10494849;28;20442;-80
2024/03/12 04:33:21;;;;;;;10.27;4.72;;;;;;;17.05;100.00;101399.28;10495786;28;20131;-79
2024/03/12 04:38:44;;;;;;;7.30;4.25;;;;;;;17.02;100.00;101409.94;10478738;28;20048;-81
2024/03/12 04:44:08;;;;;;;6.93;4.40;;;;;;;17.35;100.00;101405.47;10475778;28;20047;-79
2024/03/12 04:49:32;;;;;;;14.23;4.60;;;;;;;17.36;100.00;101401.91;10501499;28;20050;-79
2024/03/12 04:54:54;;;;;;;10.38;4.75;;;;;;;17.60;100.00;101403.63;10506248;28;20043;-78
2024/03/12 05:00:19;;;;;;;9.65;4.40;;;;;;;17.99;100.00;101413.31;10493212;28;20040;-79
2024/03/12 05:05:44;;;;;;;12.77;5.47;;;;;;;18.60;100.00;101420.13;10497172;28;20563;-79
2024/03/12 05:11:06;;;;;;;12.52;5.22;;;;;;;19.04;100.00;101427.81;10490587;28;20074;-79
2024/03/12 05:16:29;;;;;;;10.80;5.75;;;;;;;19.06;100.00;101401.03;10465413;28;20040;-79
2024/03/12 05:21:53;;;;;;;16.80;8.27;;;;;;;19.76;100.00;101387.81;10478974;28;20135;-79
2024/03/12 05:27:23;;;;;;;9.15;4.70;;;;;;;20.52;100.00;101381.47;10487898;28;20423;-79
2024/03/12 05:32:47;;;;;;;10.20;4.35;;;;;;;21.14;100.00;101402.78;10483621;28;20143;-79
2024/03/12 05:38:11;;;;;;;9.02;4.63;;;;;;;21.90;100.00;101431.84;10479032;28;20082;-80
2024/03/12 05:49:19;;;;;;;8.57;4.25;;;;;;;22.82;90.64;101412.78;10481022;28;20113;-79
2024/03/12 05:54:43;;;;;;;10.90;4.47;;;;;;;23.08;90.39;101406.75;10490556;28;20048;-79
2024/03/12 06:00:08;;;;;;;8.00;5.00;;;;;;;24.34;73.72;101418.53;10492363;28;20044;-79
2024/03/12 06:05:35;;;;;;;7.75;3.65;;;;;;;24.72;66.86;101409.22;10504600;28;20178;-79
2024/03/12 06:10:59;;;;;;;7.38;4.38;;;;;;;25.01;67.97;101404.63;10479152;28;20052;-79
2024/03/12 06:16:22;;;;;;;13.30;4.13;;;;;;;24.56;63.94;101384.50;10475342;28;20040;-79
2024/03/12 06:21:44;;;;;;;7.80;3.42;;;;;;;24.82;64.32;101380.94;10516929;28;20058;-80
2024/03/12 06:27:08;;;;;;;8.90;3.55;;;;;;;25.50;58.79;101358.78;10498457;28;20480;-80
2024/03/12 06:32:31;;;;;;;10.55;4.15;;;;;;;26.37;54.39;101365.38;10519990;28;20411;-80
2024/03/12 06:37:54;;;;;;;14.43;4.45;;;;;;;26.72;50.63;101373.88;10519421;28;20145;-80
2024/03/12 06:43:19;;;;;;;9.32;4.07;;;;;;;26.47;51.94;101387.56;10476834;28;20176;-80
2024/03/12 06:48:43;;;;;;;8.55;3.90;;;;;;;27.43;49.17;101399.78;10508598;28;20041;-80
2024/03/12 06:54:07;;;;;;;10.63;4.03;;;;;;;28.17;44.70;101399.13;10510915;28;20048;-80
2024/03/12 06:59:31;;;;;;;11.48;3.85;;;;;;;28.43;44.42;101390.59;10469878;28;20055;-80
2024/03/12 07:04:55;;;;;;;9.73;4.10;;;;;;;29.29;40.67;101387.19;10476134;28;20040;-80
2024/03/12 07:10:18;;;;;;;10.43;3.45;;;;;;;29.12;40.78;101406.25;10499631;28;20062;-80
2024/03/12 07:15:44;;;;;;;11.88;3.47;;;;;;;30.04;39.39;101393.16;10490403;28;20080;-81
2024/03/12 07:21:07;;;;;;;7.93;3.67;;;;;;;30.22;39.20;101391.25;10484499;28;20036;-80
2024/03/12 07:26:30;;;;;;;7.07;3.47;;;;;;;31.85;36.38;101390.63;10524698;28;20163;-80
2024/03/12 07:31:54;;;;;;;12.18;4.20;;;;;;;31.18;35.52;101386.56;10495616;28;20497;-81
2024/03/12 07:37:17;;;;;;;7.45;3.58;;;;;;;28.88;40.06;101381.19;10497474;28;20053;-80
2024/03/12 07:42:41;;;;;;;8.60;3.88;;;;;;;29.22;39.46;101366.72;10516768;28;20045;-80
2024/03/12 07:48:07;;;;;;;10.93;3.40;;;;;;;31.16;36.67;101372.16;10496786;28;20056;-80
2024/03/12 07:53:29;;;;;;;8.90;3.05;;;;;;;32.22;33.14;101352.78;10507111;28;20088;-82
2024/03/12 07:58:52;;;;;;;14.05;3.72;;;;;;;31.27;33.90;101336.88;10478720;28;20155;-82
2024/03/12 08:04:16;;;;;;;12.95;3.53;;;;;;;32.30;33.56;101353.13;10502946;28;20053;-79
2024/03/12 08:09:39;;;;;;;9.82;3.58;;;;;;;33.49;31.85;101351.38;10481402;28;20504;-79
2024/03/12 08:15:02;;;;;;;8.95;3.38;;;;;;;32.91;31.98;101344.47;10494253;28;20066;-78
2024/03/12 08:20:26;;;;;;;7.05;2.78;;;;;;;33.28;31.58;101325.53;10492726;28;20144;-77
2024/03/12 08:25:49;;;;;;;12.65;3.53;;;;;;;32.13;33.30;101323.28;10508112;28;20453;-76
2024/03/12 08:31:11;;;;;;;11.23;4.22;;;;;;;33.28;32.35;101318.19;10483145;28;20113;-75
2024/03/12 08:36:36;;;;;;;11.02;3.78;;;;;;;30.81;35.40;101303.31;10474057;28;20056;-76
2024/03/12 08:41:59;;;;;;;10.02;3.92;;;;;;;30.16;36.50;101295.34;10495684;28;20507;-77
2024/03/12 08:47:23;;;;;;;10.18;3.50;;;;;;;29.08;38.56;101304.88;10501961;28;20402;-79
2024/03/12 08:52:47;;;;;;;10.25;3.70;;;;;;;29.54;37.26;101287.00;10469663;28;20044;-79
2024/03/12 08:58:10;;;;;;;7.78;3.70;;;;;;;28.28;40.46;101287.28;10479375;28;20086;-79
2024/03/12 09:03:32;;;;;;;8.10;4.15;;;;;;;28.97;40.18;101293.69;10491096;28;20052;-79
2024/03/12 09:08:56;;;;;;;11.07;4.28;;;;;;;27.98;42.29;101285.03;10521280;28;20530;-79
2024/03/12 09:14:19;;;;;;;8.07;4.03;;;;;;;26.92;45.65;101290.81;10502794;28;20053;-78
2024/03/12 09:19:43;;;;;;;8.85;3.85;;;;;;;27.32;45.16;101286.34;10521546;28;20135;-78
2024/03/12 09:25:09;;;;;;;9.70;3.00;;;;;;;27.64;44.73;101266.78;10479339;28;20061;-78
2024/03/12 09:30:34;;;;;;;12.57;4.10;;;;;;;27.80;44.25;101225.34;10493602;28;20066;-78
2024/03/12 09:35:56;;;;;;;11.75;4.25;;;;;;;27.12;47.02;101238.44;10507858;28;20051;-77
2024/03/12 09:41:21;;;;;;;12.02;4.60;;;;;;;26.62;46.69;101215.38;10479740;28;20056;-78
2024/03/12 09:46:45;;;;;;;9.90;3.40;;;;;;;26.31;48.57;101214.00;10487507;28;20048;-79
2024/03/12 09:52:08;;;;;;;10.00;3.90;;;;;;;26.85;48.16;101223.38;10506240;28;20052;-79
2024/03/12 09:57:33;;;;;;;11.38;4.28;;;;;;;26.42;49.31;101216.25;10504219;28;20067;-78
2024/03/12 10:02:59;;;;;;;11.13;3.92;;;;;;;26.90;48.48;101205.13;10477781;28;20063;-79
2024/03/12 10:08:28;;;;;;;9.55;3.80;;;;;;;26.70;47.36;101202.38;10518548;28;20070;-79
2024/03/12 10:13:58;;;;;;;10.65;3.88;;;;;;;26.57;48.57;101204.75;10488607;28;20048;-78
2024/03/12 10:19:25;;;;;;;13.88;4.57;;;;;;;26.43;47.46;101205.34;10518918;28;20052;-80
2024/03/12 10:24:48;;;;;;;14.00;4.60;;;;;;;25.85;49.67;101170.81;10519972;28;20140;-81
2024/03/12 10:30:25;;;;;;;7.47;3.53;;;;;;;26.37;50.01;101199.31;10464650;28;20053;-81
2024/03/12 10:35:50;;;;;;;13.48;3.38;;;;;;;26.50;49.80;101197.84;10464029;28;20064;-81
2024/03/12 10:41:18;;;;;;;11.35;3.70;;;;;;;26.44;45.96;101217.06;10481867;28;20045;-81
2024/03/12 10:46:44;;;;;;;9.50;3.72;;;;;;;26.04;50.48;101210.59;10490707;28;20140;-78
2024/03/12 10:52:08;;;;;;;9.33;3.73;;;;;;;26.23;49.63;101221.53;10451927;28;20056;-79
2024/03/12 10:57:31;;;;;;;12.52;3.63;;;;;;;26.37;50.28;101210.16;10476212;28;20055;-78
2024/03/12 11:02:55;;;;;;;9.60;3.03;;;;;;;26.40;49.77;101232.56;10476671;28;20060;-77
2024/03/12 11:08:18;;;;;;;8.45;3.40;;;;;;;25.73;51.35;101218.19;10510889;28;20056;-78
2024/03/12 11:13:41;;;;;;;10.63;3.40;;;;;;;25.42;54.89;101204.94;10475572;28;20520;-77
2024/03/12 11:19:22;;;;;;;9.52;3.50;;;;;;;25.36;56.48;101199.75;10486977;28;20043;-78
2024/03/12 11:24:47;;;;;;;9.02;3.22;;;;;;;25.14;58.35;101215.06;10471193;28;20143;-82
2024/03/12 11:30:11;;;;;;;9.57;3.83;;;;;;;24.75;56.22;101183.09;10470192;28;20114;-79
2024/03/12 11:35:37;;;;;;;7.63;3.13;;;;;;;24.59;54.77;101181.91;10489532;28;20135;-78
2024/03/12 11:41:02;;;;;;;8.60;3.20;;;;;;;24.44;55.83;101174.34;10460306;28;20055;-78
2024/03/12 11:46:44;;;;;;;10.55;4.05;;;;;;;23.91;64.67;101187.78;10482081;28;20052;-80
2024/03/12 11:52:08;;;;;;;10.07;3.47;;;;;;;23.55;67.59;101184.47;10474193;28;20067;-76
2024/03/12 11:57:31;;;;;;;16.05;4.05;;;;;;;23.58;74.32;101199.66;10468142;28;20106;-77
2024/03/12 12:02:54;;;;;;;11.00;4.13;;;;;;;23.67;69.23;101194.88;10451673;28;20055;-80
2024/03/12 12:08:19;;;;;;;12.30;4.15;;;;;;;23.65;72.63;101206.63;10480219;28;20114;-82
2024/03/12 12:13:41;;;;;;;10.65;4.00;;;;;;;23.45;77.61;101205.38;10481559;28;20094;-81
2024/03/12 12:19:05;;;;;;;15.68;4.05;;;;;;;23.63;76.46;101209.34;10480162;28;20114;-83
2024/03/12 12:24:31;;;;;;;9.38;3.83;;;;;;;23.17;79.46;101225.97;10492705;28;20065;-79
2024/03/12 12:29:54;;;;;;;13.27;4.05;;;;;;;23.33;79.37;101221.03;10496515;28;20102;-86
2024/03/12 12:35:19;;;;;;;13.18;4.55;;;;;;;23.31;80.75;101215.69;10478238;28;20052;-89
2024/03/12 12:40:44;;;;;;;12.65;5.90;;;;;;;23.19;83.38;101209.78;10490808;28;20048;-85
2024/03/12 12:46:16;;;;;;;10.40;4.43;;;;;;;22.89;88.88;101216.94;10479662;28;20048;-86
2024/03/12 12:51:39;;;;;;;11.20;4.60;;;;;;;22.79;91.49;101218.09;10482859;28;20143;-80
2024/03/12 12:57:03;;;;;;;15.63;4.75;;;;;;;22.86;90.92;101230.47;10498392;28;20366;-80
2024/03/12 13:02:30;;;;;;;14.35;5.22;;;;;;;22.88;93.06;101213.34;10522405;28;20052;-83
2024/03/12 13:07:52;;;;;;;10.55;4.18;;;;;;;22.76;93.42;101211.00;10480736;28;20094;-79
2024/03/12 13:13:16;;;;;;;18.85;4.97;;;;;;;22.43;95.99;101203.81;10441527;28;20591;-83
2024/03/12 13:18:38;;;;;;;12.88;5.05;;;;;;;22.17;99.66;101199.97;10478839;28;20101;-80
2024/03/12 13:24:03;;;;;;;14.70;5.38;;;;;;;21.93;100.00;101196.94;10512187;28;20045;-81
2024/03/12 13:29:30;;;;;;;9.98;4.82;;;;;;;22.25;99.80;101195.25;10490619;28;20080;-81
2024/03/12 13:34:54;;;;;;;14.63;5.07;;;;;;;22.11;99.02;101196.56;10479087;28;20068;-81
2024/03/12 13:40:17;;;;;;;10.80;4.70;;;;;;;22.04;99.10;101182.38;10479645;28;20320;-81
2024/03/12 13:45:42;;;;;;;15.38;5.72;;;;;;;22.15;96.65;101176.72;10507378;28;20123;-80
2024/03/12 13:51:07;;;;;;;14.45;5.13;;;;;;;22.06;98.59;101174.25;10478296;28;20068;-81
2024/03/12 13:56:32;;;;;;;17.42;5.13;;;;;;;21.90;99.92;101173.72;10506657;28;20143;-79
2024/03/12 14:01:57;;;;;;;15.48;5.35;;;;;;;21.75;100.00;101185.72;10490318;28;20051;-84
2024/03/12 14:07:20;;;;;;;16.90;5.53;;;;;;;21.66;100.00;101183.25;10465051;28;20520;-82
2024/03/12 14:12:42;;;;;;;15.45;5.15;;;;;;;21.42;100.00;101168.56;10468423;28;20044;-80
2024/03/12 14:18:07;;;;;;;15.32;5.22;;;;;;;21.26;100.00;101175.22;10474755;28;20101;-80
2024/03/12 14:23:31;;;;;;;13.52;5.60;;;;;;;21.27;100.00;101173.41;10445926;28;20055;-80
2024/03/12 14:28:54;;;;;;;20.70;5.93;;;;;;;21.35;100.00;101172.31;10475429;28;20043;-79
2024/03/12 14:34:18;;;;;;;14.40;4.20;;;;;;;21.15;100.00;101170.94;10503047;28;20048;-80
2024/03/12 14:39:40;;;;;;;15.13;5.32;;;;;;;21.06;100.00;101182.78;10504159;28;20037;-79
2024/03/12 14:45:03;;;;;;;16.60;5.28;;;;;;;20.92;100.00;101184.84;10477706;28;20135;-79
2024/03/12 14:50:27;;;;;;;16.77;5.07;;;;;;;20.80;100.00;101179.75;10477333;28;20051;-80
2024/03/12 14:55:49;;;;;;;13.98;4.60;;;;;;;20.72;100.00;101179.00;10491420;28;20049;-78
2024/03/12 15:01:13;;;;;;;20.70;5.97;;;;;;;20.45;100.00;101183.97;10490473;28;20104;-79
2024/03/12 15:06:37;;;;;;;20.55;5.53;;;;;;;20.25;100.00;101172.69;10476932;28;20556;-79
2024/03/12 15:12:00;;;;;;;25.80;6.10;;;;;;;20.20;100.00;101172.75;10468861;28;20063;-80
2024/03/12 15:17:24;;;;;;;19.05;5.57;;;;;;;19.94;100.00;101155.34;10449265;28;20048;-80
2024/03/12 15:22:48;;;;;;;15.85;5.22;;;;;;;19.76;100.00;101157.41;10441231;28;20194;-79
2024/03/12 15:28:11;;;;;;;20.83;5.95;;;;;;;19.67;100.00;101143.28;10460835;28;20060;-79
2024/03/12 15:33:33;;;;;;;22.38;5.93;;;;;;;19.52;100.00;101149.75;10490238;28;20052;-79
2024/03/12 15:38:57;;;;;;;22.73;6.43;;;;;;;19.28;100.00;101132.22;10481116;28;20048;-79
2024/03/12 15:44:20;;;;;;;19.13;6.03;;;;;;;19.03;100.00;101131.66;10498574;28;20052;-79
2024/03/12 15:49:42;;;;;;;20.77;5.72;;;;;;;18.93;100.00;101137.16;10498390;28;20068;-79
2024/03/12 15:55:09;;;;;;;18.00;5.72;;;;;;;18.86;100.00;101139.00;10483902;28;20127;-79
2024/03/12 16:00:33;;;;;;;19.48;6.10;;;;;;;18.79;100.00;101142.66;10488287;28;20395;-79
2024/03/12 16:05:56;;;;;;;16.92;5.47;;;;;;;18.58;100.00;101137.56;10492106;28;20094;-78
2024/03/12 16:11:20;;;;;;;18.30;6.50;;;;;;;18.39;100.00;101119.91;10476078;28;20056;-79
2024/03/12 16:16:43;;;;;;;20.38;6.20;;;;;;;18.18;100.00;101121.91;10478011;28;20036;-81
2024/03/12 16:22:07;;;;;;;19.80;6.47;;;;;;;17.97;100.00;101116.78;10500741;28;20066;-83
2024/03/12 16:27:31;;;;;;;22.10;6.10;;;;;;;17.84;100.00;101139.16;10480550;28;20052;-80
2024/03/12 16:32:54;;;;;;;19.63;5.63;;;;;;;17.80;100.00;101142.72;10495903;28;20090;-78
2024/03/12 16:38:21;;;;;;;21.23;6.70;;;;;;;17.86;100.00;101156.03;10496420;28;20056;-80
2024/03/12 16:43:45;;;;;;;15.98;5.50;;;;;;;17.72;100.00;101168.63;10501388;28;20467;-78
2024/03/12 16:49:08;;;;;;;20.65;6.22;;;;;;;17.80;100.00;101169.44;10497183;28;20121;-77
2024/03/12 16:54:33;;;;;;;23.20;5.57;;;;;;;17.75;100.00;101184.63;10479019;28;20118;-84
2024/03/12 17:00:00;;;;;;;23.08;6.95;;;;;;;17.82;100.00;101210.38;10472370;28;20062;-84
2024/03/12 17:05:23;;;;;;;24.85;7.32;;;;;;;18.06;100.00;101203.97;10505577;28;20045;-79
2024/03/12 17:10:47;;;;;;;19.88;7.50;;;;;;;17.74;100.00;101221.13;10476176;28;20044;-79
2024/03/12 17:16:14;;;;;;;26.80;8.20;;;;;;;17.85;100.00;101219.25;10477740;28;20045;-78
2024/03/12 17:21:38;;;;;;;31.65;9.25;;;;;;;18.17;100.00;101221.72;10472517;28;20056;-79
2024/03/12 17:27:01;;;;;;;37.20;12.68;;;;;;;18.40;100.00;101233.97;10477807;28;20151;-79
2024/03/12 17:32:26;;;;;;;29.63;8.02;;;;;;;18.52;100.00;101232.06;10474385;28;20044;-80
2024/03/12 17:37:55;;;;;;;23.33;5.60;;;;;;;18.72;100.00;101242.59;10476579;28;20080;-79
2024/03/12 17:43:19;;;;;;;29.38;5.15;;;;;;;18.64;100.00;101242.69;10479293;28;20538;-82
2024/03/12 17:48:44;;;;;;;29.25;12.50;;;;;;;18.66;100.00;101259.59;10467262;28;20064;-79
2024/03/12 17:54:07;;;;;;;27.25;7.18;;;;;;;18.70;100.00;101247.13;10467805;28;20052;-79
2024/03/12 17:59:33;;;;;;;31.10;9.10;;;;;;;18.79;100.00;101249.66;10467847;28;20447;-81
2024/03/12 18:04:57;;;;;;;23.67;5.80;;;;;;;18.89;100.00;101245.13;10478345;28;20140;-79
2024/03/12 18:10:21;;;;;;;26.98;5.32;;;;;;;18.91;100.00;101251.31;10478232;28;20049;-80
2024/03/12 18:15:45;;;;;;;26.83;4.65;;;;;;;18.59;100.00;101246.31;10477304;28;20404;-80
2024/03/12 18:21:10;;;;;;;26.88;6.95;;;;;;;18.17;100.00;101251.09;10491438;28;20409;-79
2024/03/12 18:26:33;;;;;;;28.75;6.70;;;;;;;18.07;100.00;101261.84;10449625;28;20424;-78
2024/03/12 18:31:57;;;;;;;26.48;8.20;;;;;;;18.19;100.00;101259.97;10496742;28;20374;-78
2024/03/12 18:37:21;;;;;;;27.50;10.10;;;;;;;18.36;100.00;101257.19;10498010;28;20502;-79
2024/03/12 18:42:44;;;;;;;27.77;8.73;;;;;;;18.37;100.00;101253.63;10486847;28;20048;-83
2024/03/12 18:48:07;;;;;;;36.63;14.85;;;;;;;18.24;100.00;101259.97;10508308;28;20082;-88
2024/03/12 18:53:33;;;;;;;32.53;11.10;;;;;;;17.96;100.00;101267.28;10492555;28;20064;-80
2024/03/12 18:58:56;;;;;;;31.60;12.65;;;;;;;17.88;100.00;101272.66;10474528;28;20138;-76
2024/03/12 19:04:26;;;;;;;33.03;15.40;;;;;;;17.97;100.00;101276.19;10472102;28;20041;-81
2024/03/12 19:09:52;;;;;;;31.83;13.90;;;;;;;17.88;100.00;101272.66;10461100;28;20228;-80
2024/03/12 19:15:20;;;;;;;21.65;10.23;;;;;;;17.95;100.00;101281.53;10490760;28;20059;-80
2024/03/12 19:20:44;;;;;;;24.30;7.30;;;;;;;17.94;100.00;101277.09;10477948;28;20052;-80
2024/03/12 19:26:10;;;;;;;21.95;6.60;;;;;;;17.95;100.00;101278.88;10463735;28;20049;-80
2024/03/12 19:31:37;;;;;;;20.77;9.48;;;;;;;17.71;100.00;101261.22;10468670;28;20044;-80
2024/03/12 19:37:04;;;;;;;24.15;6.70;;;;;;;17.22;100.00;101271.19;10479486;28;20028;-80
2024/03/12 19:42:30;;;;;;;21.08;6.28;;;;;;;16.94;100.00;101275.69;10472365;28;20041;-81
2024/03/12 19:47:53;;;;;;;26.90;6.30;;;;;;;16.97;100.00;101275.69;10483490;28;20045;-80
2024/03/12 19:53:16;;;;;;;22.88;8.43;;;;;;;17.14;100.00;101268.53;10494506;28;20047;-79
2024/03/12 19:58:40;;;;;;;21.00;5.95;;;;;;;17.37;100.00;101262.22;10497550;28;20045;-79
2024/03/12 20:04:02;;;;;;;32.72;9.07;;;;;;;17.37;100.00;101267.56;10473464;28;20098;-79
2024/03/12 20:09:26;;;;;;;45.63;24.15;;;;;;;17.30;100.00;101274.72;10517419;28;20128;-81
2024/03/12 20:14:50;;;;;;;23.15;8.77;;;;;;;17.09;100.00;101272.09;10495356;28;20052;-80
2024/03/12 20:20:14;;;;;;;23.35;7.15;;;;;;;16.71;100.00;101269.53;10469443;28;20452;-80
2024/03/12 20:25:37;;;;;;;37.70;22.08;;;;;;;16.51;100.00;101279.28;10500197;28;20579;-80
2024/03/12 20:31:02;;;;;;;30.25;12.27;;;;;;;16.34;100.00;101276.63;10483071;28;20072;-80
2024/03/12 20:36:24;;;;;;;26.75;10.82;;;;;;;16.34;100.00;101274.81;10482617;28;20061;-80
2024/03/12 20:41:47;;;;;;;71.15;43.42;;;;;;;16.35;100.00;101271.28;10443088;28;20064;-79
2024/03/12 20:47:13;;;;;;;24.15;11.73;;;;;;;16.21;100.00;101261.53;10481009;28;20040;-79
2024/03/12 20:52:37;;;;;;;21.20;7.45;;;;;;;16.07;100.00;101256.19;10481758;28;20056;-79
2024/03/12 20:58:00;;;;;;;24.65;10.68;;;;;;;15.95;100.00;101259.69;10504343;28;20040;-79
2024/03/12 21:03:28;;;;;;;24.75;10.02;;;;;;;15.96;100.00;101263.25;10481353;28;20036;-79
2024/03/12 21:08:51;;;;;;;34.42;19.63;;;;;;;15.75;100.00;101253.44;10494776;28;20143;-79
2024/03/12 21:14:14;;;;;;;23.50;6.60;;;;;;;15.62;100.00;101261.41;10440302;28;20135;-79
2024/03/12 21:19:42;;;;;;;20.08;6.07;;;;;;;15.73;100.00;101271.22;10467464;28;20056;-79
2024/03/12 21:25:06;;;;;;;28.02;12.50;;;;;;;15.83;100.00;101280.09;10493184;28;20139;-79
2024/03/12 21:30:28;;;;;;;20.73;5.43;;;;;;;16.02;100.00;101283.66;10460098;28;20151;-79
2024/03/12 21:35:52;;;;;;;22.98;5.88;;;;;;;16.14;100.00;101289.06;10466152;28;20435;-79
2024/03/12 21:41:15;;;;;;;17.27;5.13;;;;;;;16.18;100.00;101288.16;10486220;28;20501;-79
2024/03/12 21:46:37;;;;;;;15.63;4.78;;;;;;;16.18;100.00;101288.16;10474158;28;20044;-79
2024/03/12 21:52:01;;;;;;;18.85;5.13;;;;;;;16.08;100.00;101287.25;10493474;28;20056;-80
2024/03/12 21:57:24;;;;;;;23.80;10.35;;;;;;;16.07;100.00;101276.59;10479365;28;20529;-79
2024/03/12 22:02:46;;;;;;;22.33;7.50;;;;;;;16.06;100.00;101277.50;10471287;28;20493;-79
2024/03/12 22:08:10;;;;;;;23.08;7.43;;;;;;;16.08;100.00;101273.06;10465223;28;20045;-79
2024/03/12 22:13:33;;;;;;;18.10;5.50;;;;;;;16.01;100.00;101273.94;10437904;28;20053;-79
2024/03/12 22:18:56;;;;;;;26.27;10.43;;;;;;;15.99;100.00;101281.91;10464633;28;20052;-78
2024/03/12 22:24:23;;;;;;;24.92;7.00;;;;;;;15.90;100.00;101276.56;10484999;28;20045;-79
2024/03/12 22:29:45;;;;;;;15.48;5.25;;;;;;;15.63;100.00;101277.38;10518446;28;20079;-79
2024/03/12 22:35:09;;;;;;;19.13;5.43;;;;;;;15.53;100.00;101264.94;10520217;28;20147;-80
2024/03/12 22:40:34;;;;;;;21.27;5.38;;;;;;;15.20;100.00;101260.34;10440439;28;20048;-79
2024/03/12 22:45:57;;;;;;;19.27;5.50;;;;;;;15.04;100.00;101254.03;10480523;28;20408;-79
2024/03/12 22:51:21;;;;;;;26.98;10.00;;;;;;;14.95;100.00;101261.09;10497021;28;20052;-79
2024/03/12 22:56:47;;;;;;;26.80;8.65;;;;;;;14.88;100.00;101259.28;10476611;28;20064;-79
2024/03/12 23:02:10;;;;;;;21.50;5.75;;;;;;;14.67;100.00;101252.94;10518817;28;20051;-79
2024/03/12 23:07:35;;;;;;;17.45;5.70;;;;;;;14.48;100.00;101266.06;10519378;28;20051;-78
2024/03/12 23:12:59;;;;;;;13.13;4.05;;;;;;;14.52;100.00;101262.56;10518681;28;20147;-78
2024/03/12 23:18:24;;;;;;;19.75;4.10;;;;;;;14.67;100.00;101254.69;10518990;28;20052;-79
2024/03/12 23:23:47;;;;;;;16.48;3.67;;;;;;;14.63;100.00;101251.16;10477793;28;20067;-79
2024/03/12 23:29:11;;;;;;;20.10;4.80;;;;;;;14.47;100.00;101249.25;10472484;28;20056;-79
2024/03/12 23:34:35;;;;;;;23.40;4.40;;;;;;;14.52;100.00;101254.59;10477289;28;20045;-79
2024/03/12 23:39:57;;;;;;;21.73;5.30;;;;;;;14.31;100.00;101249.97;10498168;28;20045;-79
2024/03/12 23:45:22;;;;;;;22.42;5.10;;;;;;;14.17;100.00;101249.88;10476090;28;20052;-79
2024/03/12 23:50:45;;;;;;;19.83;5.80;;;;;;;14.03;100.00;101247.97;10504496;28;20123;-79
2024/03/12 23:56:08;;;;;;;21.90;3.70;;;;;;;13.92;100.00;101243.41;10518725;28;20047;-79
